createdAt,value
2023-04-22T00:00:25.715Z,631.0000
2023-04-22T00:01:27.669Z,631.6923
2023-04-22T00:02:29.676Z,621.4615
2023-04-22T00:03:31.621Z,617.5385
2023-04-22T00:04:33.458Z,621.9231
2023-04-22T00:05:35.365Z,622.4615
2023-04-22T00:06:37.212Z,628.8461
2023-04-22T00:07:39.151Z,631.0000
2023-04-22T00:08:41.028Z,625.5385
2023-04-22T00:09:42.992Z,624.0769
2023-04-22T00:10:44.881Z,624.3077
2023-04-22T00:11:46.808Z,624.7692
2023-04-22T00:12:48.894Z,624.3077
2023-04-22T00:13:50.650Z,627.1539
2023-04-22T00:14:52.547Z,635.3846
2023-04-22T00:15:54.470Z,631.8461
2023-04-22T00:16:56.373Z,632.0000
2023-04-22T00:17:58.380Z,631.0000
2023-04-22T00:19:00.379Z,631.6154
2023-04-22T00:20:02.119Z,631.8461
2023-04-22T00:21:04.036Z,632.5385
2023-04-22T00:22:05.967Z,626.6923
2023-04-22T00:23:07.921Z,623.1539
2023-04-22T00:24:09.799Z,621.1539
2023-04-22T00:25:11.768Z,622.1539
2023-04-22T00:26:13.616Z,628.6923
2023-04-22T00:27:15.535Z,629.4615
2023-04-22T00:28:17.472Z,629.4615
2023-04-22T00:29:19.371Z,625.9231
2023-04-22T00:30:21.278Z,625.2308
2023-04-22T00:31:23.283Z,626.3846
2023-04-22T00:32:25.130Z,629.5385
2023-04-22T00:33:27.008Z,629.1539
2023-04-22T00:34:28.931Z,623.6154
2023-04-22T00:35:30.917Z,622.4615
2023-04-22T00:36:32.755Z,628.2308
2023-04-22T00:37:34.676Z,626.2308
2023-04-22T00:38:36.603Z,624.0000
2023-04-22T00:39:38.742Z,629.4615
2023-04-22T00:40:40.420Z,627.6154
2023-04-22T00:41:42.344Z,624.5385
2023-04-22T00:42:44.248Z,624.3846
2023-04-22T00:43:46.168Z,627.0000
2023-04-22T00:44:48.152Z,630.6923
2023-04-22T00:45:50.033Z,631.0769
2023-04-22T00:46:52.020Z,627.0769
2023-04-22T00:47:53.863Z,623.8461
2023-04-22T00:48:55.780Z,623.3846
2023-04-22T00:49:57.647Z,621.9231
2023-04-22T00:50:59.569Z,621.3077
2023-04-22T00:52:01.481Z,624.6923
2023-04-22T00:53:03.429Z,624.0000
2023-04-22T00:54:05.323Z,621.1539
2023-04-22T00:55:07.256Z,625.0769
2023-04-22T00:56:09.160Z,630.0769
2023-04-22T00:57:11.123Z,632.5385
2023-04-22T00:58:12.966Z,633.0000
2023-04-22T00:59:14.906Z,629.0769
2023-04-22T01:00:16.801Z,624.2308
2023-04-22T01:01:18.752Z,620.2308
2023-04-22T01:02:20.827Z,622.3846
2023-04-22T01:03:22.688Z,622.1539
2023-04-22T01:04:24.535Z,624.5385
2023-04-22T01:05:26.404Z,627.7692
2023-04-22T01:06:28.316Z,627.9231
2023-04-22T01:07:30.264Z,625.2308
2023-04-22T01:08:32.223Z,622.5385
2023-04-22T01:09:34.065Z,623.7692
2023-04-22T01:10:35.995Z,626.6154
2023-04-22T01:11:37.899Z,624.3846
2023-04-22T01:12:39.926Z,624.3077
2023-04-22T01:13:41.848Z,618.5385
2023-04-22T01:14:43.708Z,621.9231
2023-04-22T01:15:45.656Z,627.1539
2023-04-22T01:16:47.581Z,632.4615
2023-04-22T01:17:49.496Z,631.0000
2023-04-22T01:18:51.374Z,629.3846
2023-04-22T01:19:53.295Z,625.3077
2023-04-22T01:20:55.199Z,623.0769
2023-04-22T01:21:57.159Z,618.3077
2023-04-22T01:22:59.034Z,619.3846
2023-04-22T01:24:00.969Z,618.6154
2023-04-22T01:25:02.862Z,623.9231
2023-04-22T01:26:04.798Z,629.0000
2023-04-22T01:27:06.698Z,626.0000
2023-04-22T01:28:08.610Z,622.2308
2023-04-22T01:29:10.582Z,626.5385
2023-04-22T01:30:12.610Z,626.0000
2023-04-22T01:31:14.336Z,626.5385
2023-04-22T01:32:16.345Z,625.8461
2023-04-22T01:33:18.263Z,624.0769
2023-04-22T01:34:20.215Z,613.7692
2023-04-22T01:35:22.001Z,613.8461
2023-04-22T01:36:23.947Z,620.5385
2023-04-22T01:37:25.912Z,622.8461
2023-04-22T01:38:27.759Z,623.8461
2023-04-22T01:39:29.703Z,622.3846
2023-04-22T01:40:31.624Z,620.6923
2023-04-22T01:41:33.518Z,617.9231
2023-04-22T01:42:35.436Z,619.1539
2023-04-22T01:43:37.380Z,622.7692
2023-04-22T01:44:39.265Z,627.6154
2023-04-22T01:45:41.266Z,627.0769
2023-04-22T01:46:43.108Z,623.0769
2023-04-22T01:47:45.074Z,614.9231
2023-04-22T01:48:46.922Z,613.6154
2023-04-22T01:49:48.891Z,619.6154
2023-04-22T01:50:50.755Z,623.8461
2023-04-22T01:51:52.667Z,619.0000
2023-04-22T01:52:54.605Z,625.8461
2023-04-22T01:53:56.503Z,627.7692
2023-04-22T01:54:58.489Z,625.8461
2023-04-22T01:56:00.347Z,628.7692
2023-04-22T01:57:02.253Z,626.2308
2023-04-22T01:58:04.187Z,625.5385
2023-04-22T01:59:06.104Z,622.6154
2023-04-22T02:00:08.015Z,621.6154
2023-04-22T02:01:10.007Z,623.0769
2023-04-22T02:02:11.906Z,622.8461
2023-04-22T02:03:13.853Z,625.9231
2023-04-22T02:04:15.683Z,627.6154
2023-04-22T02:05:17.588Z,620.1539
2023-04-22T02:06:19.570Z,618.3846
2023-04-22T02:07:21.426Z,619.3846
2023-04-22T02:08:23.322Z,622.3077
2023-04-22T02:09:25.354Z,623.8461
2023-04-22T02:10:27.166Z,630.6667
2023-04-22T02:11:29.091Z,633.2308
2023-04-22T02:12:31.055Z,625.6923
2023-04-22T02:13:32.889Z,620.7692
2023-04-22T02:14:34.908Z,621.8461
2023-04-22T02:15:36.796Z,623.9231
2023-04-22T02:16:38.897Z,626.8461
2023-04-22T02:17:40.581Z,630.0769
2023-04-22T02:18:42.500Z,629.3077
2023-04-22T02:19:44.505Z,626.6923
2023-04-22T02:20:46.304Z,627.0833
2023-04-22T02:21:49.069Z,627.2308
2023-04-22T02:22:50.128Z,627.7692
2023-04-22T02:23:52.053Z,628.4615
2023-04-22T02:24:53.964Z,627.0769
2023-04-22T02:25:55.921Z,621.3846
2023-04-22T02:26:58.415Z,617.9231
2023-04-22T02:27:59.713Z,621.4167
2023-04-22T02:29:01.605Z,623.6154
2023-04-22T02:30:03.545Z,624.0000
2023-04-22T02:31:05.476Z,625.7692
2023-04-22T02:32:07.383Z,624.5385
2023-04-22T02:33:10.919Z,628.3846
2023-04-22T02:34:11.187Z,636.9231
2023-04-22T02:35:13.106Z,633.3077
2023-04-22T02:36:17.045Z,633.3846
2023-04-22T02:37:16.930Z,635.3077
2023-04-22T02:38:18.846Z,625.5385
2023-04-22T02:39:20.749Z,618.4615
2023-04-22T02:40:22.704Z,617.6923
2023-04-22T02:41:24.585Z,621.5385
2023-04-22T02:42:26.494Z,620.6154
2023-04-22T02:43:28.417Z,622.2308
2023-04-22T02:44:30.329Z,628.8461
2023-04-22T02:45:32.437Z,629.1539
2023-04-22T02:46:34.189Z,629.0000
2023-04-22T02:47:36.122Z,625.6154
2023-04-22T02:48:37.997Z,626.4615
2023-04-22T02:49:40.159Z,632.9231
2023-04-22T02:50:41.814Z,629.0769
2023-04-22T02:51:45.936Z,626.3077
2023-04-22T02:52:46.623Z,617.2308
2023-04-22T02:53:47.564Z,617.0000
2023-04-22T02:54:49.485Z,618.9231
2023-04-22T02:55:52.005Z,622.5385
2023-04-22T02:56:53.349Z,624.6154
2023-04-22T02:57:55.276Z,618.0769
2023-04-22T02:58:57.167Z,612.7692
2023-04-22T02:59:59.071Z,619.0000
2023-04-22T03:01:01.029Z,628.3077
2023-04-22T03:02:04.469Z,630.6923
2023-04-22T03:03:05.081Z,622.5385
2023-04-22T03:04:06.870Z,621.1539
2023-04-22T03:05:08.780Z,621.2308
2023-04-22T03:06:10.648Z,623.6923
2023-04-22T03:07:12.504Z,626.6923
2023-04-22T03:08:14.408Z,628.9231
2023-04-22T03:09:16.373Z,629.6154
2023-04-22T03:10:18.242Z,632.4615
2023-04-22T03:11:22.051Z,621.3077
2023-04-22T03:12:22.127Z,624.7500
2023-04-22T03:13:23.977Z,626.5385
2023-04-22T03:14:26.557Z,625.3846
2023-04-22T03:15:27.821Z,626.3846
2023-04-22T03:16:29.793Z,623.0769
2023-04-22T03:17:31.704Z,620.9231
2023-04-22T03:18:33.561Z,622.3846
2023-04-22T03:19:36.421Z,625.4615
2023-04-22T03:20:37.462Z,627.0769
2023-04-22T03:21:39.324Z,627.3846
2023-04-22T03:22:41.224Z,626.8461
2023-04-22T03:23:43.190Z,632.6923
2023-04-22T03:24:47.010Z,625.1539
2023-04-22T03:25:47.088Z,620.2308
2023-04-22T03:26:49.095Z,626.9231
2023-04-22T03:27:51.500Z,628.1667
2023-04-22T03:28:52.815Z,629.0769
2023-04-22T03:29:54.636Z,627.6154
2023-04-22T03:30:56.548Z,625.6154
2023-04-22T03:31:59.656Z,627.0000
2023-04-22T03:33:00.955Z,629.1539
2023-04-22T03:34:02.288Z,631.7692
2023-04-22T03:35:04.199Z,631.5385
2023-04-22T03:36:06.106Z,630.1539
2023-04-22T03:37:08.157Z,619.7692
2023-04-22T03:38:10.048Z,614.3846
2023-04-22T03:39:13.583Z,618.3077
2023-04-22T03:40:13.959Z,621.6154
2023-04-22T03:41:15.690Z,623.1539
2023-04-22T03:42:17.587Z,626.6923
2023-04-22T03:43:19.521Z,628.0769
2023-04-22T03:44:24.218Z,625.8461
2023-04-22T03:45:23.334Z,625.4167
2023-04-22T03:46:25.361Z,626.6923
2023-04-22T03:47:27.428Z,626.8461
2023-04-22T03:48:33.049Z,626.8461
2023-04-22T03:49:31.013Z,625.0000
2023-04-22T03:50:32.918Z,624.8461
2023-04-22T03:51:34.831Z,624.4615
2023-04-22T03:52:38.736Z,623.6154
2023-04-22T03:53:38.657Z,623.4615
2023-04-22T03:54:40.599Z,626.0769
2023-04-22T03:55:42.515Z,628.1539
2023-04-22T03:56:44.413Z,630.1539
2023-04-22T03:57:46.354Z,623.7692
2023-04-22T03:58:48.314Z,626.8461
2023-04-22T03:59:50.157Z,627.1539
2023-04-22T04:00:52.078Z,626.2308
2023-04-22T04:01:53.976Z,627.2308
2023-04-22T04:02:57.593Z,628.2308
2023-04-22T04:03:57.946Z,627.3077
2023-04-22T04:05:03.542Z,629.1539
2023-04-22T04:06:01.796Z,619.2308
2023-04-22T04:07:03.555Z,621.6923
2023-04-22T04:08:05.466Z,625.8461
2023-04-22T04:09:07.395Z,623.6923
2023-04-22T04:10:09.320Z,623.6154
2023-04-22T04:11:12.162Z,620.6923
2023-04-22T04:12:13.946Z,618.0833
2023-04-22T04:13:15.065Z,622.3846
2023-04-22T04:14:16.957Z,621.6154
2023-04-22T04:15:18.915Z,623.1539
2023-04-22T04:16:21.576Z,626.1539
2023-04-22T04:17:23.028Z,620.2500
2023-04-22T04:18:24.624Z,622.3077
2023-04-22T04:19:26.535Z,626.6154
2023-04-22T04:20:28.608Z,625.6154
2023-04-22T04:21:30.374Z,623.9231
2023-04-22T04:22:32.294Z,623.3077
2023-04-22T04:23:34.225Z,623.3846
2023-04-22T04:24:36.141Z,621.7692
2023-04-22T04:25:38.049Z,626.3077
2023-04-22T04:26:39.959Z,627.3077
2023-04-22T04:27:41.855Z,624.7692
2023-04-22T04:28:45.511Z,623.5385
2023-04-22T04:29:45.695Z,622.3077
2023-04-22T04:30:49.819Z,617.8461
2023-04-22T04:31:49.573Z,621.5385
2023-04-22T04:32:51.504Z,622.0000
2023-04-22T04:33:53.353Z,624.8461
2023-04-22T04:34:55.286Z,629.4615
2023-04-22T04:35:57.252Z,620.0769
2023-04-22T04:36:59.226Z,618.3077
2023-04-22T04:38:01.039Z,618.0769
2023-04-22T04:39:02.957Z,616.8461
2023-04-22T04:40:04.867Z,622.6923
2023-04-22T04:41:06.784Z,629.3846
2023-04-22T04:42:08.761Z,624.4615
2023-04-22T04:43:10.781Z,622.2308
2023-04-22T04:44:13.472Z,619.8461
2023-04-22T04:45:14.547Z,621.5385
2023-04-22T04:46:18.065Z,623.2308
2023-04-22T04:47:18.266Z,623.4615
2023-04-22T04:48:20.202Z,624.2308
2023-04-22T04:49:22.233Z,619.6923
2023-04-22T04:50:24.065Z,622.7692
2023-04-22T04:51:25.940Z,623.7692
2023-04-22T04:52:27.942Z,623.0000
2023-04-22T04:53:30.547Z,622.3077
2023-04-22T04:54:31.694Z,617.1539
2023-04-22T04:55:33.637Z,607.6154
2023-04-22T04:56:35.530Z,610.3077
2023-04-22T04:57:38.542Z,616.9231
2023-04-22T04:58:39.355Z,617.7692
2023-04-22T04:59:41.652Z,620.0769
2023-04-22T05:00:43.218Z,623.0000
2023-04-22T05:01:45.352Z,622.3077
2023-04-22T05:02:47.185Z,606.0833
2023-04-22T05:03:49.101Z,611.7692
2023-04-22T05:04:50.931Z,617.3077
2023-04-22T05:05:52.786Z,617.4615
2023-04-22T05:06:54.670Z,621.4615
2023-04-22T05:07:56.618Z,621.7692
2023-04-22T05:08:58.508Z,620.2308
2023-04-22T05:10:00.429Z,616.3846
2023-04-22T05:11:02.912Z,618.0000
2023-04-22T05:12:04.258Z,618.9231
2023-04-22T05:13:06.192Z,620.1539
2023-04-22T05:14:08.102Z,617.7692
2023-04-22T05:15:10.081Z,620.3077
2023-04-22T05:16:11.986Z,621.6154
2023-04-22T05:17:14.015Z,621.6923
2023-04-22T05:18:16.569Z,621.7500
2023-04-22T05:19:17.744Z,623.9231
2023-04-22T05:20:19.753Z,624.3077
2023-04-22T05:21:21.591Z,622.6154
2023-04-22T05:22:23.591Z,618.9231
2023-04-22T05:23:26.064Z,611.3077
2023-04-22T05:24:27.330Z,616.8461
2023-04-22T05:25:29.238Z,621.2308
2023-04-22T05:26:32.215Z,620.3077
2023-04-22T05:27:33.102Z,617.7692
2023-04-22T05:28:36.307Z,615.8461
2023-04-22T05:29:36.942Z,618.6923
2023-04-22T05:30:38.846Z,621.4615
2023-04-22T05:31:40.779Z,622.1539
2023-04-22T05:32:42.729Z,623.6154
2023-04-22T05:33:44.612Z,626.5385
2023-04-22T05:34:46.761Z,622.3077
2023-04-22T05:35:48.409Z,623.8461
2023-04-22T05:36:53.041Z,621.3846
2023-04-22T05:37:52.395Z,619.7500
2023-04-22T05:38:54.160Z,619.5000
2023-04-22T05:39:56.070Z,620.2308
2023-04-22T05:40:58.093Z,618.5385
2023-04-22T05:41:59.937Z,615.0000
2023-04-22T05:43:01.822Z,617.5385
2023-04-22T05:44:06.003Z,617.6154
2023-04-22T05:45:06.026Z,615.9231
2023-04-22T05:46:07.772Z,614.8333
2023-04-22T05:47:09.505Z,611.0769
2023-04-22T05:48:11.509Z,613.5385
2023-04-22T05:49:13.740Z,612.2308
2023-04-22T05:50:16.015Z,616.5385
2023-04-22T05:51:17.384Z,620.0769
2023-04-22T05:52:19.084Z,627.1539
2023-04-22T05:53:21.012Z,623.9231
2023-04-22T05:54:22.953Z,622.6923
2023-04-22T05:55:24.842Z,624.6923
2023-04-22T05:56:27.518Z,620.7692
2023-04-22T05:57:31.813Z,618.1539
2023-04-22T05:58:30.691Z,619.0833
2023-04-22T05:59:32.516Z,622.5385
2023-04-22T06:00:34.414Z,622.3846
2023-04-22T06:01:36.401Z,619.0000
2023-04-22T06:02:38.395Z,621.0000
2023-04-22T06:03:41.006Z,622.7692
2023-04-22T06:04:42.332Z,625.4615
2023-04-22T06:05:44.061Z,625.0000
2023-04-22T06:06:45.926Z,621.3077
2023-04-22T06:07:47.827Z,616.1539
2023-04-22T06:08:49.973Z,615.2308
2023-04-22T06:09:59.362Z,616.3846
2023-04-22T06:10:53.574Z,622.6667
2023-04-22T06:11:55.512Z,622.7692
2023-04-22T06:12:57.388Z,622.0769
2023-04-22T06:13:59.320Z,621.6154
2023-04-22T06:15:01.396Z,619.6154
2023-04-22T06:16:03.173Z,616.5385
2023-04-22T06:17:07.064Z,619.0000
2023-04-22T06:18:06.989Z,622.3846
2023-04-22T06:19:08.895Z,623.6923
2023-04-22T06:20:10.835Z,626.2308
2023-04-22T06:21:12.731Z,622.5385
2023-04-22T06:22:14.633Z,620.8461
2023-04-22T06:23:16.556Z,620.9231
2023-04-22T06:24:18.483Z,621.8461
2023-04-22T06:25:20.388Z,621.6923
2023-04-22T06:26:22.324Z,623.3846
2023-04-22T06:27:25.133Z,619.0000
2023-04-22T06:28:26.136Z,615.4167
2023-04-22T06:29:28.076Z,618.2308
2023-04-22T06:30:29.971Z,626.6923
2023-04-22T06:31:31.951Z,625.5385
2023-04-22T06:32:33.877Z,625.6923
2023-04-22T06:33:35.740Z,623.3846
2023-04-22T06:34:37.661Z,619.0000
2023-04-22T06:35:39.670Z,613.8461
2023-04-22T06:36:41.497Z,618.7692
2023-04-22T06:37:43.402Z,620.7692
2023-04-22T06:38:45.337Z,621.2308
2023-04-22T06:39:47.420Z,620.5385
2023-04-22T06:40:49.158Z,621.6923
2023-04-22T06:41:53.106Z,622.7692
2023-04-22T06:42:52.986Z,625.2500
2023-04-22T06:43:55.181Z,621.8461
2023-04-22T06:44:56.827Z,623.1539
2023-04-22T06:45:58.744Z,625.6154
2023-04-22T06:47:00.671Z,627.2308
2023-04-22T06:48:02.567Z,623.5385
2023-04-22T06:49:04.574Z,623.2308
2023-04-22T06:50:06.448Z,622.5385
2023-04-22T06:51:09.765Z,623.0769
2023-04-22T06:52:10.245Z,625.0769
2023-04-22T06:53:12.174Z,623.8461
2023-04-22T06:54:14.105Z,621.2308
2023-04-22T06:55:15.988Z,622.3846
2023-04-22T06:56:17.937Z,623.3846
2023-04-22T06:57:19.835Z,623.8461
2023-04-22T06:58:21.781Z,623.3846
2023-04-22T06:59:23.665Z,621.3077
2023-04-22T07:00:26.525Z,622.5385
2023-04-22T07:01:27.569Z,621.4167
2023-04-22T07:02:29.515Z,623.2308
2023-04-22T07:03:32.155Z,623.8461
2023-04-22T07:04:33.278Z,627.7500
2023-04-22T07:05:35.446Z,624.5385
2023-04-22T07:06:37.066Z,620.6923
2023-04-22T07:07:39.114Z,620.0000
2023-04-22T07:08:40.919Z,617.5385
2023-04-22T07:09:42.842Z,618.6923
2023-04-22T07:10:45.588Z,617.1539
2023-04-22T07:11:46.673Z,618.3077
2023-04-22T07:12:48.572Z,621.4615
2023-04-22T07:13:50.518Z,619.3077
2023-04-22T07:14:52.413Z,617.6923
2023-04-22T07:15:54.420Z,619.2308
2023-04-22T07:16:56.252Z,621.3077
2023-04-22T07:17:58.192Z,621.4615
2023-04-22T07:19:00.091Z,623.4615
2023-04-22T07:20:02.007Z,625.1539
2023-04-22T07:21:03.901Z,618.0769
2023-04-22T07:22:09.496Z,613.2308
2023-04-22T07:23:07.913Z,614.3333
2023-04-22T07:24:09.664Z,618.9231
2023-04-22T07:25:11.606Z,619.6923
2023-04-22T07:26:13.702Z,620.3077
2023-04-22T07:27:15.416Z,621.0000
2023-04-22T07:28:21.029Z,621.6923
2023-04-22T07:29:19.444Z,617.3333
2023-04-22T07:30:22.084Z,619.7692
2023-04-22T07:31:23.106Z,622.2500
2023-04-22T07:32:25.009Z,617.6923
2023-04-22T07:33:33.085Z,613.6154
2023-04-22T07:34:28.844Z,612.6364
2023-04-22T07:35:30.796Z,616.3077
2023-04-22T07:36:35.497Z,617.8461
2023-04-22T07:37:34.596Z,617.2500
2023-04-22T07:38:36.521Z,622.2308
2023-04-22T07:39:38.772Z,622.0000
2023-04-22T07:40:40.359Z,619.6923
2023-04-22T07:41:42.293Z,619.7692
2023-04-22T07:42:44.200Z,618.3846
2023-04-22T07:43:46.107Z,615.5385
2023-04-22T07:44:48.026Z,616.5385
2023-04-22T07:45:49.987Z,616.7692
2023-04-22T07:46:51.871Z,616.7692
2023-04-22T07:47:53.794Z,617.7692
2023-04-22T07:48:58.471Z,618.8461
2023-04-22T07:49:57.627Z,619.7692
2023-04-22T07:50:59.537Z,620.9231
2023-04-22T07:52:01.634Z,616.5385
2023-04-22T07:53:03.372Z,612.1539
2023-04-22T07:54:07.128Z,611.6923
2023-04-22T07:55:08.298Z,614.4615
2023-04-22T07:56:09.249Z,614.5000
2023-04-22T07:57:11.208Z,614.9231
2023-04-22T07:58:12.970Z,616.8461
2023-04-22T07:59:14.907Z,612.3077
2023-04-22T08:00:17.779Z,610.6154
2023-04-22T08:01:20.076Z,610.0833
2023-04-22T08:02:20.892Z,613.5385
2023-04-22T08:03:23.982Z,618.6154
2023-04-22T08:04:24.641Z,619.0000
2023-04-22T08:05:26.420Z,617.6923
2023-04-22T08:06:28.297Z,613.1539
2023-04-22T08:07:32.911Z,611.5385
2023-04-22T08:08:32.134Z,614.0769
2023-04-22T08:09:34.961Z,621.5385
2023-04-22T08:10:35.964Z,620.9231
2023-04-22T08:11:37.932Z,620.0000
2023-04-22T08:12:42.464Z,619.7692
2023-04-22T08:13:41.733Z,619.0769
2023-04-22T08:14:43.625Z,618.9231
2023-04-22T08:15:45.660Z,620.0769
2023-04-22T08:16:47.590Z,618.0000
2023-04-22T08:17:49.448Z,614.5385
2023-04-22T08:18:51.320Z,613.7692
2023-04-22T08:19:59.529Z,610.8461
2023-04-22T08:20:55.133Z,612.1667
2023-04-22T08:21:59.212Z,612.9231
2023-04-22T08:22:58.960Z,612.6923
2023-04-22T08:24:00.900Z,615.6154
2023-04-22T08:25:02.794Z,612.6154
2023-04-22T08:26:04.730Z,609.5385
2023-04-22T08:27:06.631Z,611.4615
2023-04-22T08:28:08.556Z,612.0000
2023-04-22T08:29:10.482Z,613.2308
2023-04-22T08:30:14.041Z,614.9231
2023-04-22T08:31:14.322Z,620.2308
2023-04-22T08:32:16.234Z,618.6923
2023-04-22T08:33:18.149Z,616.0000
2023-04-22T08:34:21.677Z,616.0769
2023-04-22T08:35:23.533Z,615.8461
2023-04-22T08:36:24.621Z,616.0769
2023-04-22T08:37:25.814Z,614.6923
2023-04-22T08:38:27.753Z,608.3846
2023-04-22T08:39:29.646Z,607.4615
2023-04-22T08:40:31.576Z,608.7692
2023-04-22T08:41:33.701Z,610.0769
2023-04-22T08:42:35.416Z,613.6923
2023-04-22T08:43:37.357Z,615.7692
2023-04-22T08:44:39.347Z,612.6154
2023-04-22T08:45:42.017Z,609.3077
2023-04-22T08:46:44.114Z,614.3846
2023-04-22T08:47:45.051Z,616.0000
2023-04-22T08:48:47.562Z,619.6923
2023-04-22T08:49:49.100Z,620.5455
2023-04-22T08:50:51.634Z,620.6154
2023-04-22T08:51:52.663Z,616.3333
2023-04-22T08:52:54.596Z,615.1539
2023-04-22T08:53:56.639Z,614.2308
2023-04-22T08:55:02.604Z,613.4615
2023-04-22T08:56:00.407Z,615.3333
2023-04-22T08:57:02.297Z,615.4615
2023-04-22T08:58:04.302Z,615.3077
2023-04-22T08:59:06.105Z,612.5000
2023-04-22T09:00:08.042Z,612.0000
2023-04-22T09:01:15.637Z,612.5385
2023-04-22T09:02:11.928Z,611.3333
2023-04-22T09:03:13.864Z,611.9231
2023-04-22T09:04:15.822Z,615.2308
2023-04-22T09:05:17.645Z,612.7692
2023-04-22T09:06:19.549Z,616.1539
2023-04-22T09:07:21.469Z,619.0000
2023-04-22T09:08:24.064Z,620.0000
2023-04-22T09:09:25.324Z,621.9231
2023-04-22T09:10:27.231Z,616.1539
2023-04-22T09:11:29.147Z,608.2308
2023-04-22T09:12:31.068Z,606.8461
2023-04-22T09:13:32.995Z,608.5385
2023-04-22T09:14:35.045Z,608.8461
2023-04-22T09:15:38.178Z,611.4615
2023-04-22T09:16:38.812Z,612.6667
2023-04-22T09:17:40.663Z,609.0769
2023-04-22T09:18:42.580Z,608.0769
2023-04-22T09:19:44.517Z,609.1539
2023-04-22T09:20:46.487Z,609.1539
2023-04-22T09:21:50.364Z,611.8461
2023-04-22T09:22:50.345Z,614.0833
2023-04-22T09:23:53.113Z,606.6923
2023-04-22T09:24:54.189Z,609.5833
2023-04-22T09:25:56.142Z,611.3846
2023-04-22T09:26:58.031Z,612.2308
2023-04-22T09:27:59.958Z,610.0000
2023-04-22T09:29:01.852Z,612.2308
2023-04-22T09:30:03.790Z,613.3077
2023-04-22T09:31:05.981Z,611.2308
2023-04-22T09:32:07.964Z,607.6154
2023-04-22T09:33:09.582Z,611.6667
2023-04-22T09:34:14.012Z,612.4615
2023-04-22T09:35:13.568Z,609.2500
2023-04-22T09:36:15.332Z,607.5833
2023-04-22T09:37:17.235Z,609.7692
2023-04-22T09:38:25.101Z,608.6923
2023-04-22T09:39:21.095Z,606.1818
2023-04-22T09:40:24.841Z,609.6923
2023-04-22T09:41:24.915Z,611.0833
2023-04-22T09:42:26.854Z,610.1539
2023-04-22T09:43:28.759Z,601.8461
2023-04-22T09:44:30.659Z,603.9231
2023-04-22T09:45:32.730Z,606.7692
2023-04-22T09:46:34.659Z,608.2308
2023-04-22T09:47:38.251Z,609.7692
2023-04-22T09:48:38.382Z,616.6667
2023-04-22T09:49:40.584Z,616.4615
2023-04-22T09:50:42.472Z,612.3077
2023-04-22T09:51:44.161Z,612.2308
2023-04-22T09:52:46.007Z,614.3077
2023-04-22T09:53:48.033Z,616.3077
2023-04-22T09:54:51.136Z,614.9231
2023-04-22T09:55:51.794Z,612.0833
2023-04-22T09:56:55.637Z,611.7692
2023-04-22T09:57:55.694Z,610.9231
2023-04-22T09:58:57.534Z,608.1539
2023-04-22T09:59:59.461Z,608.0000
2023-04-22T10:01:01.740Z,608.5385
2023-04-22T10:02:03.332Z,612.2500
2023-04-22T10:03:06.724Z,611.6154
2023-04-22T10:04:10.152Z,609.9231
2023-04-22T10:05:09.094Z,609.7500
2023-04-22T10:06:10.964Z,608.1539
2023-04-22T10:07:16.537Z,613.1539
2023-04-22T10:08:15.746Z,613.5833
2023-04-22T10:09:16.720Z,614.3846
2023-04-22T10:10:18.661Z,613.3077
2023-04-22T10:11:20.582Z,610.8461
2023-04-22T10:12:32.841Z,612.3846
2023-04-22T10:13:25.127Z,613.7500
2023-04-22T10:14:27.047Z,613.2500
2023-04-22T10:15:28.327Z,609.0000
2023-04-22T10:16:30.199Z,602.0769
2023-04-22T10:17:35.131Z,597.9231
2023-04-22T10:18:34.115Z,600.8461
2023-04-22T10:19:35.929Z,601.6154
2023-04-22T10:20:38.694Z,610.0000
2023-04-22T10:21:39.778Z,612.7692
2023-04-22T10:22:41.690Z,610.0000
2023-04-22T10:23:43.613Z,609.7692
2023-04-22T10:24:45.540Z,610.0000
2023-04-22T10:25:47.465Z,606.6154
2023-04-22T10:26:49.387Z,608.2308
2023-04-22T10:27:51.341Z,610.0769
2023-04-22T10:28:53.216Z,607.6923
2023-04-22T10:29:55.123Z,605.0769
2023-04-22T10:30:57.106Z,605.9231
2023-04-22T10:31:58.983Z,610.4615
2023-04-22T10:33:01.062Z,615.5385
2023-04-22T10:34:02.806Z,614.2308
2023-04-22T10:35:04.731Z,611.6923
2023-04-22T10:36:06.642Z,612.0000
2023-04-22T10:37:08.567Z,601.0000
2023-04-22T10:38:10.508Z,598.4615
2023-04-22T10:39:12.420Z,605.9231
2023-04-22T10:40:14.337Z,609.6923
2023-04-22T10:41:16.278Z,608.3077
2023-04-22T10:42:18.167Z,603.5385
2023-04-22T10:43:20.192Z,603.1539
2023-04-22T10:44:22.029Z,604.4615
2023-04-22T10:45:23.945Z,606.0000
2023-04-22T10:46:25.872Z,609.0769
2023-04-22T10:47:27.791Z,609.3077
2023-04-22T10:48:29.691Z,611.0000
2023-04-22T10:49:31.635Z,610.6923
2023-04-22T10:50:33.542Z,610.8461
2023-04-22T10:51:35.569Z,612.7692
2023-04-22T10:52:37.401Z,612.0769
2023-04-22T10:53:39.521Z,612.2308
2023-04-22T10:54:41.240Z,615.1667
2023-04-22T10:55:46.551Z,615.5385
2023-04-22T10:56:51.867Z,610.4167
2023-04-22T10:57:46.992Z,611.4167
2023-04-22T10:58:49.652Z,611.6923
2023-04-22T10:59:51.659Z,615.9231
2023-04-22T11:00:54.181Z,612.0000
2023-04-22T11:01:54.680Z,601.2308
2023-04-22T11:02:56.705Z,601.8461
2023-04-22T11:03:58.541Z,603.8461
2023-04-22T11:05:00.418Z,603.3846
2023-04-22T11:06:02.367Z,604.3077
2023-04-22T11:07:04.256Z,607.3846
2023-04-22T11:08:06.202Z,605.8461
2023-04-22T11:09:09.129Z,606.2308
2023-04-22T11:10:11.598Z,611.3077
2023-04-22T11:11:12.053Z,613.7500
2023-04-22T11:12:13.889Z,616.7692
2023-04-22T11:13:15.820Z,611.2308
2023-04-22T11:14:17.742Z,614.7692
2023-04-22T11:15:19.635Z,615.0000
2023-04-22T11:16:22.445Z,605.8461
2023-04-22T11:17:23.470Z,603.6923
2023-04-22T11:18:25.395Z,607.1539
2023-04-22T11:19:27.318Z,606.4615
2023-04-22T11:20:29.235Z,607.1539
2023-04-22T11:21:31.155Z,607.1539
2023-04-22T11:22:33.071Z,604.8461
2023-04-22T11:23:35.092Z,605.0000
2023-04-22T11:24:36.925Z,605.6154
2023-04-22T11:25:38.915Z,606.3846
2023-04-22T11:26:40.802Z,610.3077
2023-04-22T11:27:42.744Z,605.0000
2023-04-22T11:28:44.623Z,601.4615
2023-04-22T11:29:46.527Z,600.2308
2023-04-22T11:30:48.452Z,605.2308
2023-04-22T11:31:50.385Z,611.1539
2023-04-22T11:33:17.491Z,612.9231
2023-04-22T11:33:56.096Z,607.2857
2023-04-22T11:34:56.141Z,602.9231
2023-04-22T11:35:58.045Z,601.0000
2023-04-22T11:36:59.987Z,604.8461
2023-04-22T11:38:01.961Z,606.6154
2023-04-22T11:39:03.899Z,607.1539
2023-04-22T11:41:07.652Z,610.7692
2023-04-22T11:42:09.662Z,606.6154
2023-04-22T11:43:12.025Z,604.9231
2023-04-22T11:44:17.154Z,607.6923
2023-04-22T11:45:17.156Z,606.3846
2023-04-22T11:46:17.345Z,600.7500
2023-04-22T11:47:19.170Z,598.5385
2023-04-22T11:48:21.083Z,603.6923
2023-04-22T11:49:24.597Z,599.9231
2023-04-22T11:50:24.927Z,596.2308
2023-04-22T11:51:29.633Z,598.2308
2023-04-22T11:52:28.768Z,604.7692
2023-04-22T11:53:30.685Z,605.3077
2023-04-22T11:54:32.656Z,601.2308
2023-04-22T11:55:34.580Z,595.7692
2023-04-22T11:56:36.486Z,601.3077
2023-04-22T11:57:38.373Z,609.3077
2023-04-22T11:58:40.264Z,608.3077
2023-04-22T11:59:42.383Z,609.1539
2023-04-22T12:00:44.103Z,606.9231
2023-04-22T12:01:48.112Z,601.6923
2023-04-22T12:02:48.236Z,598.6923
2023-04-22T12:03:50.847Z,599.1539
2023-04-22T12:04:57.083Z,601.6667
2023-04-22T12:05:53.881Z,605.5833
2023-04-22T12:06:55.654Z,600.3846
2023-04-22T12:07:57.594Z,600.6923